Time;durP1;ratioP1;P1;durP2;ratioP2;P2;SDS_P1;SDS_P2;PMS_P1;PMS_P2;Temp;Humidity;BMP_temperature;BMP_pressure;BME280_temperature;BME280_humidity;BME280_pressure;Samples;Min_cycle;Max_cycle;Signal;HPM_P1;HPM_P2
2023/07/07 00:00:07;;;;;;;8.33;4.80;;;;;;;;;;5053980;28;20201;-68
2023/07/07 00:02:34;;;;;;;8.13;4.77;;;;;;;;;;5036195;28;20186;-69
2023/07/07 00:04:59;;;;;;;8.07;5.50;;;;;;;;;;5036125;28;20198;-68
2023/07/07 00:07:25;;;;;;;10.33;5.53;;;;;;;;;;5036152;28;20182;-68
2023/07/07 00:09:51;;;;;;;8.07;5.43;;;;;;;;;;5036392;28;20221;-68
2023/07/07 00:12:17;;;;;;;9.60;5.63;;;;;;;;;;5036107;28;20192;-68
2023/07/07 00:14:44;;;;;;;10.23;5.17;;;;;;;;;;5053474;28;20175;-68
2023/07/07 00:17:11;;;;;;;7.33;4.83;;;;;;;;;;5054020;28;20181;-69
2023/07/07 00:19:37;;;;;;;9.40;5.80;;;;;;;;;;5053660;28;20221;-68
2023/07/07 00:22:05;;;;;;;11.30;5.33;;;;;;;;;;5054059;28;20305;-68
2023/07/07 00:24:32;;;;;;;6.97;4.63;;;;;;;;;;5035880;28;20325;-68
2023/07/07 00:26:58;;;;;;;8.80;5.30;;;;;;;;;;5053927;28;20285;-68
2023/07/07 00:29:24;;;;;;;7.53;5.30;;;;;;;;;;5053850;28;20320;-68
2023/07/07 00:31:50;;;;;;;8.97;5.30;;;;;;;;;;5035787;28;20205;-67
2023/07/07 00:34:15;;;;;;;9.83;5.47;;;;;;;;;;5053950;28;20178;-66
2023/07/07 00:36:41;;;;;;;11.37;5.40;;;;;;;;;;5053996;28;20266;-67
2023/07/07 00:39:07;;;;;;;8.93;5.50;;;;;;;;;;5053495;28;20224;-67
2023/07/07 00:41:33;;;;;;;8.33;5.57;;;;;;;;;;5053620;28;20252;-67
2023/07/07 00:44:03;;;;;;;14.50;5.50;;;;;;;;;;5035542;28;20208;-66
2023/07/07 00:46:29;;;;;;;7.23;5.37;;;;;;;;;;5053378;28;20208;-66
2023/07/07 00:48:56;;;;;;;13.43;5.30;;;;;;;;;;5035449;28;20193;-67
2023/07/07 00:51:29;;;;;;;7.60;5.07;;;;;;;;;;5053557;28;20214;-68
2023/07/07 00:53:56;;;;;;;9.83;5.23;;;;;;;;;;5053331;28;20595;-67
2023/07/07 00:56:26;;;;;;;10.47;5.50;;;;;;;;;;5053606;28;20182;-67
2023/07/07 00:58:52;;;;;;;7.17;5.37;;;;;;;;;;5053397;28;20206;-67
2023/07/07 01:01:18;;;;;;;11.40;5.43;;;;;;;;;;5053119;28;20186;-67
2023/07/07 01:03:48;;;;;;;8.53;5.47;;;;;;;;;;5053158;28;20227;-67
2023/07/07 01:06:16;;;;;;;7.97;5.30;;;;;;;;;;5053109;28;20202;-67
2023/07/07 01:08:43;;;;;;;8.70;5.30;;;;;;;;;;5053074;28;20556;-67
2023/07/07 01:11:09;;;;;;;10.30;5.20;;;;;;;;;;5053182;28;20202;-67
2023/07/07 01:13:36;;;;;;;9.57;5.17;;;;;;;;;;5053442;28;20636;-67
2023/07/07 01:16:02;;;;;;;8.67;5.53;;;;;;;;;;5053653;28;20639;-67
2023/07/07 01:18:28;;;;;;;11.43;5.30;;;;;;;;;;5035167;28;20225;-66
2023/07/07 01:21:01;;;;;;;7.87;5.37;;;;;;;;;;5053464;28;20167;-66
2023/07/07 01:23:45;;;;;;;6.73;4.97;;;;;;;;;;5035207;28;20178;-66
2023/07/07 01:26:14;;;;;;;9.20;5.27;;;;;;;;;;5053957;28;20228;-67
2023/07/07 01:28:53;;;;;;;11.67;5.73;;;;;;;;;;5040860;28;20198;-66
2023/07/07 01:31:28;;;;;;;6.90;5.00;;;;;;;;;;5057767;28;20182;-66
2023/07/07 01:33:54;;;;;;;9.53;5.03;;;;;;;;;;5057169;28;20161;-66
2023/07/07 01:36:20;;;;;;;9.33;4.83;;;;;;;;;;5039182;28;20595;-67
2023/07/07 01:38:47;;;;;;;7.33;5.03;;;;;;;;;;5056863;28;20243;-67
2023/07/07 01:41:20;;;;;;;8.97;4.70;;;;;;;;;;5038958;28;20182;-67
2023/07/07 01:43:51;;;;;;;10.03;5.57;;;;;;;;;;5056841;28;20220;-67
2023/07/07 01:46:30;;;;;;;7.10;5.43;;;;;;;;;;5057230;28;20194;-67
2023/07/07 01:49:06;;;;;;;9.00;5.20;;;;;;;;;;5056951;28;20194;-67
2023/07/07 01:51:36;;;;;;;7.40;4.87;;;;;;;;;;5056587;28;20206;-67
2023/07/07 01:54:03;;;;;;;8.50;5.10;;;;;;;;;;5056520;28;20179;-67
2023/07/07 01:56:31;;;;;;;9.43;5.00;;;;;;;;;;5056942;28;20232;-67
2023/07/07 01:58:57;;;;;;;8.97;5.20;;;;;;;;;;5038973;28;20619;-67
2023/07/07 02:01:23;;;;;;;9.03;5.20;;;;;;;;;;5038732;28;20178;-67
2023/07/07 02:03:49;;;;;;;9.83;5.27;;;;;;;;;;5038703;28;20193;-67
2023/07/07 02:06:15;;;;;;;8.83;5.20;;;;;;;;;;5038597;28;20578;-66
2023/07/07 02:08:41;;;;;;;13.77;5.47;;;;;;;;;;5056349;28;20194;-66
2023/07/07 02:11:07;;;;;;;8.40;5.00;;;;;;;;;;5056307;28;20174;-67
2023/07/07 02:13:34;;;;;;;14.13;5.33;;;;;;;;;;5056939;28;20542;-67
2023/07/07 02:16:00;;;;;;;11.77;5.13;;;;;;;;;;5056759;28;20587;-67
2023/07/07 02:18:26;;;;;;;9.30;5.70;;;;;;;;;;5056043;28;20238;-66
2023/07/07 02:20:52;;;;;;;15.53;5.03;;;;;;;;;;5038620;28;20193;-67
2023/07/07 02:23:18;;;;;;;9.13;5.10;;;;;;;;;;5038366;28;20232;-66
2023/07/07 02:25:44;;;;;;;6.80;4.63;;;;;;;;;;5056005;28;20206;-67
2023/07/07 02:28:10;;;;;;;11.27;4.90;;;;;;;;;;5055877;28;20182;-66
2023/07/07 02:30:36;;;;;;;9.93;4.70;;;;;;;;;;5055953;28;20266;-66
2023/07/07 02:33:02;;;;;;;10.67;5.73;;;;;;;;;;5055974;28;20182;-67
2023/07/07 02:35:31;;;;;;;11.50;5.40;;;;;;;;;;5056188;28;20269;-66
2023/07/07 02:37:57;;;;;;;12.07;5.53;;;;;;;;;;5055638;28;20178;-66
2023/07/07 02:40:23;;;;;;;10.87;5.60;;;;;;;;;;5037880;28;20295;-67
2023/07/07 02:42:49;;;;;;;10.07;6.17;;;;;;;;;;5038070;28;20324;-66
2023/07/07 02:45:15;;;;;;;11.50;5.50;;;;;;;;;;5037957;28;20202;-67
2023/07/07 02:47:41;;;;;;;12.77;5.90;;;;;;;;;;5037845;28;20174;-67
2023/07/07 02:50:07;;;;;;;10.10;5.77;;;;;;;;;;5037675;28;20198;-67
2023/07/07 02:52:33;;;;;;;11.63;5.90;;;;;;;;;;5037890;28;20183;-67
2023/07/07 02:54:59;;;;;;;9.17;5.43;;;;;;;;;;5055539;28;20186;-67
2023/07/07 02:57:25;;;;;;;10.60;5.57;;;;;;;;;;5055546;28;20182;-67
2023/07/07 02:59:51;;;;;;;11.90;6.23;;;;;;;;;;5037584;28;20248;-67
2023/07/07 03:02:17;;;;;;;18.77;6.30;;;;;;;;;;5037384;28;20217;-68
2023/07/07 03:04:46;;;;;;;8.80;5.50;;;;;;;;;;5055191;28;20206;-67
2023/07/07 03:07:12;;;;;;;11.90;6.60;;;;;;;;;;5037398;28;20752;-67
2023/07/07 03:09:38;;;;;;;12.43;5.80;;;;;;;;;;5055185;28;20230;-67
2023/07/07 03:12:04;;;;;;;13.50;6.13;;;;;;;;;;5037579;28;20174;-67
2023/07/07 03:14:30;;;;;;;11.80;6.60;;;;;;;;;;5056712;28;20189;-67
2023/07/07 03:16:59;;;;;;;13.53;5.73;;;;;;;;;;5037400;28;20182;-67
2023/07/07 03:19:25;;;;;;;12.50;5.40;;;;;;;;;;5054291;28;20222;-67
2023/07/07 03:21:54;;;;;;;8.33;5.37;;;;;;;;;;5054025;28;20232;-67
2023/07/07 03:24:20;;;;;;;6.87;4.90;;;;;;;;;;5053821;28;20175;-67
2023/07/07 03:26:47;;;;;;;7.53;4.93;;;;;;;;;;5053897;28;20174;-67
2023/07/07 03:29:12;;;;;;;9.03;5.27;;;;;;;;;;5053903;28;20202;-67
2023/07/07 03:31:38;;;;;;;8.17;5.30;;;;;;;;;;5053909;28;20167;-66
2023/07/07 03:34:05;;;;;;;8.03;5.10;;;;;;;;;;5036270;28;20264;-67
2023/07/07 03:36:32;;;;;;;6.60;4.50;;;;;;;;;;5035888;28;20178;-67
2023/07/07 03:38:58;;;;;;;6.97;5.10;;;;;;;;;;5053754;28;20198;-67
2023/07/07 03:41:25;;;;;;;8.17;4.93;;;;;;;;;;5033324;23;1042190;-63
2023/07/07 03:43:53;;;;;;;6.13;4.90;;;;;;;;;;5037024;28;20621;-63
2023/07/07 03:46:20;;;;;;;6.13;4.83;;;;;;;;;;5054711;28;20656;-63
2023/07/07 03:48:47;;;;;;;5.13;4.30;;;;;;;;;;5054397;28;20178;-63
2023/07/07 03:51:13;;;;;;;5.77;4.50;;;;;;;;;;5054553;28;20256;-64
2023/07/07 03:53:40;;;;;;;5.37;4.33;;;;;;;;;;5054537;28;20174;-63
2023/07/07 03:56:06;;;;;;;7.20;4.40;;;;;;;;;;5054579;28;20209;-63
2023/07/07 03:58:33;;;;;;;5.63;4.50;;;;;;;;;;5036583;28;20228;-63
2023/07/07 04:01:06;;;;;;;7.93;4.57;;;;;;;;;;5054487;28;20221;-63
2023/07/07 04:03:32;;;;;;;5.47;4.37;;;;;;;;;;5054383;28;20175;-63
2023/07/07 04:05:59;;;;;;;5.33;4.03;;;;;;;;;;5036384;28;20287;-63
2023/07/07 04:08:26;;;;;;;7.47;4.40;;;;;;;;;;5054407;28;20182;-64
2023/07/07 04:11:05;;;;;;;8.23;4.20;;;;;;;;;;5054405;28;20619;-63
2023/07/07 04:13:33;;;;;;;5.90;4.27;;;;;;;;;;5054110;28;20253;-64
2023/07/07 04:16:03;;;;;;;6.57;4.37;;;;;;;;;;5054279;28;20261;-66
2023/07/07 04:18:31;;;;;;;5.77;3.97;;;;;;;;;;5054151;28;20652;-65
2023/07/07 04:21:09;;;;;;;8.50;4.83;;;;;;;;;;5036086;28;20207;-64
2023/07/07 04:23:35;;;;;;;10.37;4.10;;;;;;;;;;5053941;28;20178;-64
2023/07/07 04:26:02;;;;;;;7.20;4.03;;;;;;;;;;5035993;28;20698;-65
2023/07/07 04:28:29;;;;;;;6.60;4.30;;;;;;;;;;5036038;28;20281;-64
2023/07/07 04:30:56;;;;;;;6.23;4.50;;;;;;;;;;5035937;28;20754;-64
2023/07/07 04:33:23;;;;;;;5.43;4.13;;;;;;;;;;5053822;28;20228;-65
2023/07/07 04:35:53;;;;;;;9.03;4.40;;;;;;;;;;5053836;28;20175;-64
2023/07/07 04:38:19;;;;;;;6.63;4.30;;;;;;;;;;5035871;28;20186;-65
2023/07/07 04:40:45;;;;;;;9.87;4.80;;;;;;;;;;5053778;28;20214;-64
2023/07/07 04:43:11;;;;;;;5.63;3.77;;;;;;;;;;5053549;28;20253;-64
2023/07/07 04:45:37;;;;;;;5.13;4.63;;;;;;;;;;5035706;28;20206;-64
2023/07/07 04:48:03;;;;;;;7.50;4.17;;;;;;;;;;5035692;28;20648;-64
2023/07/07 04:50:32;;;;;;;6.80;4.13;;;;;;;;;;5053516;28;20232;-64
2023/07/07 04:52:58;;;;;;;6.33;4.80;;;;;;;;;;5053718;28;20733;-64
2023/07/07 04:55:24;;;;;;;7.40;5.00;;;;;;;;;;5053691;28;20287;-65
2023/07/07 04:57:49;;;;;;;7.40;5.73;;;;;;;;;;5035394;28;20204;-65
2023/07/07 05:00:15;;;;;;;10.87;8.90;;;;;;;;;;5035423;28;20198;-65
2023/07/07 05:02:41;;;;;;;19.27;17.03;;;;;;;;;;5053187;28;20544;-65
2023/07/07 05:05:07;;;;;;;18.33;16.43;;;;;;;;;;5053382;28;20206;-65
2023/07/07 05:07:33;;;;;;;17.20;15.60;;;;;;;;;;5053295;28;20171;-66
2023/07/07 05:09:59;;;;;;;;;;;;;;;;;;5054520;28;20029;-66
2023/07/07 05:12:25;;;;;;;;;;;;;;;;;;5054219;28;19912;-66
2023/07/07 05:14:51;;;;;;;;;;;;;;;;;;5036412;28;20012;-66
2023/07/07 05:17:17;;;;;;;;;;;;;;;;;;5055352;28;19970;-66
2023/07/07 05:19:43;;;;;;;;;;;;;;;;;;5053602;28;19950;-65
2023/07/07 05:22:08;;;;;;;;;;;;;;;;;;5053621;28;19958;-65
2023/07/07 05:24:35;;;;;;;;;;;;;;;;;;5053447;28;19909;-65
2023/07/07 05:27:01;;;;;;;12.25;7.60;;;;;;;;;;5035139;28;19919;-65
2023/07/07 05:29:27;;;;;;;11.13;6.10;;;;;;;;;;5053526;28;20190;-67
2023/07/07 05:31:53;;;;;;;14.37;6.13;;;;;;;;;;5052838;28;20198;-66
2023/07/07 05:34:19;;;;;;;12.47;6.50;;;;;;;;;;5051840;28;20389;-65
2023/07/07 05:36:45;;;;;;;7.77;5.87;;;;;;;;;;5053329;28;20226;-65
2023/07/07 05:39:11;;;;;;;8.77;5.10;;;;;;;;;;5053273;28;20269;-64
2023/07/07 05:41:37;;;;;;;8.80;5.10;;;;;;;;;;5053006;28;20229;-65
2023/07/07 05:44:03;;;;;;;6.87;4.17;;;;;;;;;;5053342;28;20174;-65
2023/07/07 05:46:29;;;;;;;6.70;4.20;;;;;;;;;;5052830;28;20288;-66
2023/07/07 05:48:55;;;;;;;9.97;4.07;;;;;;;;;;5052877;28;20206;-65
2023/07/07 05:51:21;;;;;;;6.07;3.90;;;;;;;;;;5053111;28;20195;-65
2023/07/07 05:53:47;;;;;;;11.60;4.70;;;;;;;;;;5053027;28;20189;-65
2023/07/07 05:56:18;;;;;;;6.33;4.30;;;;;;;;;;5052787;28;20243;-65
2023/07/07 05:58:44;;;;;;;7.20;4.80;;;;;;;;;;5034988;28;20240;-65
2023/07/07 06:01:13;;;;;;;9.07;4.47;;;;;;;;;;5034828;28;20202;-65
2023/07/07 06:03:39;;;;;;;10.17;4.90;;;;;;;;;;5053058;28;20297;-64
2023/07/07 06:06:05;;;;;;;21.20;5.90;;;;;;;;;;5053177;28;20271;-65
2023/07/07 06:08:31;;;;;;;15.77;5.30;;;;;;;;;;5052596;28;20250;-65
2023/07/07 06:10:57;;;;;;;13.73;5.80;;;;;;;;;;5053060;28;20724;-65
2023/07/07 06:13:27;;;;;;;13.23;5.97;;;;;;;;;;5037054;28;20273;-65
2023/07/07 06:15:53;;;;;;;17.97;6.80;;;;;;;;;;5056348;28;20224;-66
2023/07/07 06:18:19;;;;;;;17.23;7.30;;;;;;;;;;5056329;28;20175;-65
2023/07/07 06:20:49;;;;;;;15.33;7.33;;;;;;;;;;5056380;28;20202;-65
2023/07/07 06:23:15;;;;;;;17.80;6.37;;;;;;;;;;5056218;28;20175;-65
2023/07/07 06:25:41;;;;;;;15.07;6.13;;;;;;;;;;5056220;28;20199;-65
2023/07/07 06:28:07;;;;;;;19.27;5.53;;;;;;;;;;5056390;28;20186;-65
2023/07/07 06:30:33;;;;;;;13.40;5.43;;;;;;;;;;5056565;28;20191;-65
2023/07/07 06:32:59;;;;;;;11.27;4.83;;;;;;;;;;5056146;28;20261;-64
2023/07/07 06:35:26;;;;;;;18.37;3.97;;;;;;;;;;5038532;28;20551;-65
2023/07/07 06:37:52;;;;;;;8.90;4.37;;;;;;;;;;5056077;28;20178;-65
2023/07/07 06:40:18;;;;;;;12.67;3.87;;;;;;;;;;5055901;28;20292;-65
2023/07/07 06:42:43;;;;;;;6.63;3.40;;;;;;;;;;5056011;28;20183;-65
2023/07/07 06:45:10;;;;;;;12.77;3.50;;;;;;;;;;5037874;28;20209;-65
2023/07/07 06:47:35;;;;;;;12.80;3.53;;;;;;;;;;5038027;28;20649;-65
2023/07/07 06:50:01;;;;;;;7.10;3.40;;;;;;;;;;5056049;28;20195;-65
2023/07/07 06:52:27;;;;;;;6.30;3.27;;;;;;;;;;5056158;28;20186;-66
2023/07/07 06:54:55;;;;;;;6.33;3.50;;;;;;;;;;5037866;28;20682;-65
2023/07/07 06:57:21;;;;;;;8.17;3.00;;;;;;;;;;5037903;28;20186;-65
2023/07/07 06:59:47;;;;;;;7.07;3.30;;;;;;;;;;5055361;28;20191;-65
2023/07/07 07:02:13;;;;;;;3.17;2.73;;;;;;;;;;5037629;28;20185;-65
2023/07/07 07:04:41;;;;;;;4.07;3.13;;;;;;;;;;5055492;28;20208;-65
2023/07/07 07:07:10;;;;;;;6.73;4.13;;;;;;;;;;5055721;28;20182;-64
2023/07/07 07:09:36;;;;;;;5.90;3.60;;;;;;;;;;5037453;28;20253;-65
2023/07/07 07:12:03;;;;;;;4.83;3.87;;;;;;;;;;5055625;28;20257;-65
2023/07/07 07:14:29;;;;;;;6.13;3.53;;;;;;;;;;5055545;28;20266;-64
2023/07/07 07:16:54;;;;;;;4.37;2.67;;;;;;;;;;5055482;28;20660;-64
2023/07/07 07:19:20;;;;;;;7.43;3.20;;;;;;;;;;5055436;28;20590;-65
2023/07/07 07:21:46;;;;;;;4.27;2.70;;;;;;;;;;5055062;28;20383;-65
2023/07/07 07:24:12;;;;;;;8.23;3.43;;;;;;;;;;5053989;28;20208;-65
2023/07/07 07:26:38;;;;;;;7.40;3.10;;;;;;;;;;5037226;28;20648;-64
2023/07/07 07:29:04;;;;;;;3.20;2.90;;;;;;;;;;5055709;28;20536;-65
2023/07/07 07:31:30;;;;;;;8.70;3.47;;;;;;;;;;5054861;28;20599;-65
2023/07/07 07:34:16;;;;;;;7.73;3.50;;;;;;;;;;5055547;28;20220;-65
2023/07/07 07:36:42;;;;;;;6.80;3.00;;;;;;;;;;5055280;28;20597;-65
2023/07/07 07:39:08;;;;;;;6.00;2.67;;;;;;;;;;5036728;28;20269;-65
2023/07/07 07:41:36;;;;;;;7.33;3.40;;;;;;;;;;5036849;28;20641;-65
2023/07/07 07:44:02;;;;;;;9.40;4.10;;;;;;;;;;5054745;28;20175;-65
2023/07/07 07:46:28;;;;;;;8.73;3.60;;;;;;;;;;5054631;28;20206;-65
2023/07/07 07:48:54;;;;;;;5.03;2.90;;;;;;;;;;5036676;28;20179;-65
2023/07/07 07:51:20;;;;;;;3.70;2.53;;;;;;;;;;5054902;28;20199;-65
2023/07/07 07:53:46;;;;;;;4.07;2.60;;;;;;;;;;5036664;28;20174;-64
2023/07/07 07:56:12;;;;;;;5.93;3.00;;;;;;;;;;5054875;28;20189;-65
2023/07/07 07:58:38;;;;;;;8.13;4.13;;;;;;;;;;5036724;28;20193;-65
2023/07/07 08:01:04;;;;;;;9.67;3.37;;;;;;;;;;5054667;28;20198;-66
2023/07/07 08:03:30;;;;;;;9.40;3.50;;;;;;;;;;5054990;28;20178;-65
2023/07/07 08:05:56;;;;;;;7.77;3.07;;;;;;;;;;5054358;28;20677;-65
2023/07/07 08:08:21;;;;;;;5.97;4.23;;;;;;;;;;5036452;28;20181;-65
2023/07/07 08:10:47;;;;;;;12.57;3.97;;;;;;;;;;5054250;28;20238;-65
2023/07/07 08:13:13;;;;;;;7.83;2.97;;;;;;;;;;5054482;28;20174;-65
2023/07/07 08:15:39;;;;;;;5.23;3.17;;;;;;;;;;5054324;28;20178;-65
2023/07/07 08:18:05;;;;;;;4.83;2.80;;;;;;;;;;5053988;28;20178;-65
2023/07/07 08:20:31;;;;;;;7.23;2.87;;;;;;;;;;5054565;28;20676;-65
2023/07/07 08:22:57;;;;;;;8.27;2.70;;;;;;;;;;5036165;28;20656;-65
2023/07/07 08:25:23;;;;;;;8.27;3.13;;;;;;;;;;5036172;28;20680;-65
2023/07/07 08:27:50;;;;;;;6.70;3.07;;;;;;;;;;5053963;28;20174;-65
2023/07/07 08:30:16;;;;;;;5.97;2.70;;;;;;;;;;5035987;28;20247;-65
2023/07/07 08:32:42;;;;;;;6.77;2.93;;;;;;;;;;5053745;28;20210;-65
2023/07/07 08:35:09;;;;;;;5.10;3.03;;;;;;;;;;5053980;28;20257;-65
2023/07/07 08:37:35;;;;;;;4.53;3.07;;;;;;;;;;5053717;28;20182;-66
2023/07/07 08:40:02;;;;;;;4.80;2.90;;;;;;;;;;5053448;28;20716;-66
2023/07/07 08:42:39;;;;;;;8.87;2.97;;;;;;;;;;5036255;28;20178;-67
2023/07/07 08:45:11;;;;;;;4.93;2.73;;;;;;;;;;5054246;28;20562;-65
2023/07/07 08:47:46;;;;;;;7.93;2.97;;;;;;;;;;5035811;28;20633;-65
2023/07/07 08:50:17;;;;;;;5.23;2.93;;;;;;;;;;5035667;28;20247;-64
2023/07/07 08:52:43;;;;;;;4.83;3.00;;;;;;;;;;5054104;28;20163;-65
2023/07/07 08:55:27;;;;;;;5.57;3.17;;;;;;;;;;5053833;28;20778;-65
2023/07/07 08:58:07;;;;;;;5.10;2.83;;;;;;;;;;5053673;28;20186;-65
2023/07/07 09:00:48;;;;;;;7.80;3.30;;;;;;;;;;5054111;28;20617;-65
2023/07/07 09:03:29;;;;;;;4.40;3.50;;;;;;;;;;5053770;28;20289;-65
2023/07/07 09:06:08;;;;;;;6.93;4.13;;;;;;;;;;5054038;28;20205;-65
2023/07/07 09:08:44;;;;;;;5.13;3.27;;;;;;;;;;5053476;28;20162;-66
2023/07/07 09:11:16;;;;;;;4.63;3.07;;;;;;;;;;5053512;28;20273;-65
2023/07/07 09:13:45;;;;;;;10.57;3.90;;;;;;;;;;5035347;28;20201;-65
2023/07/07 09:16:17;;;;;;;13.03;3.60;;;;;;;;;;5053836;28;20182;-65
2023/07/07 09:18:57;;;;;;;11.03;2.40;;;;;;;;;;5035620;28;20204;-65
2023/07/07 09:21:41;;;;;;;2.70;2.27;;;;;;;;;;5053128;28;20201;-65
2023/07/07 09:24:11;;;;;;;6.13;3.10;;;;;;;;;;5053461;28;20179;-65
2023/07/07 09:26:37;;;;;;;4.50;4.00;;;;;;;;;;5053713;28;20349;-65
2023/07/07 09:29:06;;;;;;;5.93;3.83;;;;;;;;;;5053165;28;20293;-65
2023/07/07 09:31:37;;;;;;;8.10;3.00;;;;;;;;;;5035633;28;20574;-66
2023/07/07 09:34:03;;;;;;;12.63;3.40;;;;;;;;;;5053432;28;20166;-65
2023/07/07 09:36:50;;;;;;;6.20;3.83;;;;;;;;;;5035242;28;20178;-65
2023/07/07 09:39:21;;;;;;;2.87;2.57;;;;;;;;;;5052742;28;20200;-66
2023/07/07 09:41:59;;;;;;;2.60;2.40;;;;;;;;;;5052865;28;20301;-65
2023/07/07 09:44:44;;;;;;;3.30;2.47;;;;;;;;;;5053037;28;20186;-66
2023/07/07 09:47:17;;;;;;;10.33;6.50;;;;;;;;;;5053479;28;20175;-65
2023/07/07 09:49:46;;;;;;;13.07;7.57;;;;;;;;;;5057109;28;20212;-65
2023/07/07 09:52:12;;;;;;;8.37;4.90;;;;;;;;;;5057040;28;20178;-65
2023/07/07 09:54:39;;;;;;;13.53;5.17;;;;;;;;;;5056964;28;20258;-64
2023/07/07 09:57:11;;;;;;;6.70;3.60;;;;;;;;;;5056670;28;20667;-65
2023/07/07 09:59:41;;;;;;;6.60;3.17;;;;;;;;;;5038928;28;20217;-67
2023/07/07 10:02:16;;;;;;;3.10;2.80;;;;;;;;;;5038706;28;20584;-65
2023/07/07 10:04:44;;;;;;;5.60;2.70;;;;;;;;;;5038643;28;20213;-65
2023/07/07 10:07:12;;;;;;;6.43;3.55;;;;;;;;;;5037390;28;20928;-65
2023/07/07 10:09:38;;;;;;;5.82;3.00;;;;;;;;;;5037298;28;20369;-65
2023/07/07 10:12:04;;;;;;;3.40;2.87;;;;;;;;;;5056972;28;20692;-65
2023/07/07 10:14:31;;;;;;;8.57;3.10;;;;;;;;;;5056426;28;20175;-65
2023/07/07 10:17:04;;;;;;;6.43;3.37;;;;;;;;;;5038513;28;20199;-65
2023/07/07 10:19:34;;;;;;;7.03;3.47;;;;;;;;;;5038382;28;20178;-65
2023/07/07 10:22:00;;;;;;;5.40;3.40;;;;;;;;;;5056146;28;20558;-65
2023/07/07 10:24:28;;;;;;;8.83;3.03;;;;;;;;;;5056876;28;20675;-65
2023/07/07 10:26:57;;;;;;;4.93;3.13;;;;;;;;;;5056751;28;20171;-65
2023/07/07 10:29:26;;;;;;;6.50;3.30;;;;;;;;;;5056144;28;20181;-65
2023/07/07 10:31:52;;;;;;;6.32;3.63;;;;;;;;;;5054961;28;20373;-65
2023/07/07 10:34:33;;;;;;;4.53;3.20;;;;;;;;;;5055175;28;20919;-65
2023/07/07 10:37:00;;;;;;;5.47;3.83;;;;;;;;;;5055127;28;20377;-66
2023/07/07 10:39:27;;;;;;;8.17;3.20;;;;;;;;;;5055946;28;20348;-65
2023/07/07 10:41:53;;;;;;;5.73;3.20;;;;;;;;;;5055832;28;20213;-65
2023/07/07 10:44:19;;;;;;;4.80;3.20;;;;;;;;;;5055837;28;20178;-65
2023/07/07 10:46:45;;;;;;;3.40;2.90;;;;;;;;;;5055780;28;20213;-65
2023/07/07 10:49:15;;;;;;;5.00;2.67;;;;;;;;;;5037865;28;20179;-65
2023/07/07 10:51:47;;;;;;;5.73;3.53;;;;;;;;;;5037875;28;20203;-66
2023/07/07 10:54:19;;;;;;;7.77;3.70;;;;;;;;;;5055735;28;20633;-65
2023/07/07 10:56:49;;;;;;;13.60;3.37;;;;;;;;;;5055886;28;20167;-65
2023/07/07 10:59:20;;;;;;;7.33;2.90;;;;;;;;;;5056020;28;20217;-65
2023/07/07 11:02:04;;;;;;;3.57;2.63;;;;;;;;;;5055662;28;20278;-65
2023/07/07 11:04:39;;;;;;;5.57;3.10;;;;;;;;;;5056014;28;20623;-65
2023/07/07 11:07:24;;;;;;;5.37;3.00;;;;;;;;;;5056039;28;20174;-65
2023/07/07 11:09:59;;;;;;;5.33;2.80;;;;;;;;;;5037611;28;20178;-65
2023/07/07 11:12:32;;;;;;;5.03;3.17;;;;;;;;;;5055614;28;20162;-65
2023/07/07 11:15:06;;;;;;;3.27;2.93;;;;;;;;;;5055825;28;20177;-65
2023/07/07 11:17:41;;;;;;;3.37;3.07;;;;;;;;;;5055555;28;20221;-65
2023/07/07 11:20:20;;;;;;;4.60;3.17;;;;;;;;;;5055556;28;20603;-65
2023/07/07 11:23:01;;;;;;;3.83;3.00;;;;;;;;;;5037357;28;20182;-65
2023/07/07 11:25:27;;;;;;;9.57;3.37;;;;;;;;;;5055388;28;20281;-65
2023/07/07 11:27:54;;;;;;;6.23;3.50;;;;;;;;;;5054904;28;20213;-65
2023/07/07 11:30:46;;;;;;;4.70;3.17;;;;;;;;;;5055330;28;20282;-65
2023/07/07 11:33:27;;;;;;;5.73;3.30;;;;;;;;;;5033476;28;20186;-65
2023/07/07 11:35:53;;;;;;;4.33;3.00;;;;;;;;;;5039021;28;20170;-66
2023/07/07 11:38:36;;;;;;;8.17;2.87;;;;;;;;;;5038946;28;20660;-65
2023/07/07 11:41:14;;;;;;;5.53;2.80;;;;;;;;;;5056697;28;20696;-66
2023/07/07 11:43:47;;;;;;;5.57;3.13;;;;;;;;;;5055908;28;20166;-66
2023/07/07 11:46:23;;;;;;;4.50;3.60;;;;;;;;;;5038248;28;20205;-65
2023/07/07 11:48:55;;;;;;;5.53;3.40;;;;;;;;;;5056032;28;20182;-67
2023/07/07 11:51:27;;;;;;;3.63;3.00;;;;;;;;;;5056550;28;20730;-65
2023/07/07 11:54:02;;;;;;;4.07;3.20;;;;;;;;;;5056221;28;20648;-67
2023/07/07 11:56:29;;;;;;;3.47;2.70;;;;;;;;;;5056076;28;20172;-65
2023/07/07 11:59:13;;;;;;;4.40;2.40;;;;;;;;;;5056747;28;20206;-66
2023/07/07 12:01:42;;;;;;;5.97;3.13;;;;;;;;;;5055800;28;20598;-65
2023/07/07 12:04:18;;;;;;;5.57;3.43;;;;;;;;;;5037963;28;20224;-65
2023/07/07 12:06:52;;;;;;;5.07;3.17;;;;;;;;;;5055439;28;20206;-66
2023/07/07 12:09:24;;;;;;;5.63;3.50;;;;;;;;;;5055988;28;20177;-66
2023/07/07 12:11:52;;;;;;;5.50;3.77;;;;;;;;;;5055636;28;20241;-66
2023/07/07 12:14:35;;;;;;;4.23;3.40;;;;;;;;;;5055457;28;20224;-65
2023/07/07 12:17:02;;;;;;;4.40;3.57;;;;;;;;;;5055727;28;20196;-65
2023/07/07 12:19:36;;;;;;;4.07;3.13;;;;;;;;;;5038149;28;20182;-66
2023/07/07 12:22:03;;;;;;;3.20;2.80;;;;;;;;;;5055750;28;20197;-66
2023/07/07 12:24:38;;;;;;;3.43;3.13;;;;;;;;;;5055953;28;20695;-65
2023/07/07 12:27:16;;;;;;;4.30;3.77;;;;;;;;;;5038048;28;20177;-66
2023/07/07 12:29:43;;;;;;;4.10;3.50;;;;;;;;;;5055561;28;20654;-66
2023/07/07 12:32:09;;;;;;;4.23;3.83;;;;;;;;;;5037745;28;20225;-66
2023/07/07 12:34:36;;;;;;;4.90;3.40;;;;;;;;;;5037693;28;20221;-66
2023/07/07 12:37:03;;;;;;;5.20;3.65;;;;;;;;;;5037493;28;20675;-66
2023/07/07 12:39:29;;;;;;;4.65;4.25;;;;;;;;;;5055594;28;20683;-65
2023/07/07 12:41:55;;;;;;;8.10;4.00;;;;;;;;;;5055659;28;20210;-65
2023/07/07 12:44:21;;;;;;;5.18;3.85;;;;;;;;;;5055674;28;20174;-65
2023/07/07 12:46:47;;;;;;;6.68;4.43;;;;;;;;;;5055427;28;20213;-65
2023/07/07 12:49:22;;;;;;;6.87;5.07;;;;;;;;;;5055411;28;20252;-65
2023/07/07 12:51:53;;;;;;;6.68;3.75;;;;;;;;;;5036904;28;20197;-65
2023/07/07 12:54:32;;;;;;;7.47;4.88;;;;;;;;;;5055214;28;20166;-66
2023/07/07 12:57:19;;;;;;;6.80;4.40;;;;;;;;;;5055332;28;20170;-66
2023/07/07 12:59:45;;;;;;;7.32;5.10;;;;;;;;;;5053884;28;20190;-65
2023/07/07 13:02:14;;;;;;;5.72;4.30;;;;;;;;;;5054507;28;20181;-65
2023/07/07 13:04:42;;;;;;;7.57;4.23;;;;;;;;;;5054642;28;20209;-65
2023/07/07 13:07:18;;;;;;;6.72;4.97;;;;;;;;;;5054875;28;20183;-64
2023/07/07 13:09:49;;;;;;;7.20;4.20;;;;;;;;;;5054611;28;20563;-65
2023/07/07 13:12:33;;;;;;;3.85;3.45;;;;;;;;;;5054575;28;20171;-67
2023/07/07 13:15:06;;;;;;;6.17;3.30;;;;;;;;;;5054732;28;20281;-67
2023/07/07 13:17:33;;;;;;;4.43;3.55;;;;;;;;;;5054831;28;20190;-67
2023/07/07 13:20:00;;;;;;;4.43;3.80;;;;;;;;;;5054114;28;20244;-67
2023/07/07 13:22:36;;;;;;;4.32;3.20;;;;;;;;;;5053179;28;20178;-68
2023/07/07 13:25:06;;;;;;;3.58;3.25;;;;;;;;;;5054387;28;20201;-66
2023/07/07 13:27:33;;;;;;;6.95;3.92;;;;;;;;;;5053930;28;20175;-66
2023/07/07 13:30:11;;;;;;;6.13;3.72;;;;;;;;;;5035914;28;20233;-67
2023/07/07 13:32:38;;;;;;;5.03;2.67;;;;;;;;;;5053026;28;20899;-68
2023/07/07 13:35:04;;;;;;;3.72;3.35;;;;;;;;;;5036596;28;20202;-67
2023/07/07 13:37:30;;;;;;;4.47;3.42;;;;;;;;;;5054050;28;20221;-67
2023/07/07 13:39:57;;;;;;;6.97;3.70;;;;;;;;;;5036562;28;20206;-66
2023/07/07 13:42:25;;;;;;;6.70;5.05;;;;;;;;;;5036637;28;20170;-67
2023/07/07 13:44:55;;;;;;;4.75;3.50;;;;;;;;;;5053939;28;20199;-68
2023/07/07 13:47:22;;;;;;;5.20;3.55;;;;;;;;;;5036081;28;20455;-67
2023/07/07 13:49:51;;;;;;;6.63;3.50;;;;;;;;;;5053020;28;20370;-66
2023/07/07 13:52:21;;;;;;;6.78;4.30;;;;;;;;;;5053297;28;20470;-67
2023/07/07 13:54:50;;;;;;;7.43;3.93;;;;;;;;;;5035109;28;20376;-70
2023/07/07 13:57:22;;;;;;;6.10;4.67;;;;;;;;;;5052979;28;20373;-67
2023/07/07 13:59:49;;;;;;;6.17;4.87;;;;;;;;;;5035216;28;20374;-69
2023/07/07 14:02:15;;;;;;;7.53;5.22;;;;;;;;;;5052740;28;20439;-68
2023/07/07 14:04:45;;;;;;;7.10;5.13;;;;;;;;;;5054255;28;20178;-66
2023/07/07 14:07:18;;;;;;;4.10;3.42;;;;;;;;;;5053978;28;20210;-68
2023/07/07 14:09:46;;;;;;;5.88;2.97;;;;;;;;;;5053729;28;20224;-68
2023/07/07 14:12:13;;;;;;;3.55;3.20;;;;;;;;;;5054618;28;20175;-68
2023/07/07 14:14:42;;;;;;;3.70;3.22;;;;;;;;;;5053936;28;20179;-69
2023/07/07 14:17:15;;;;;;;4.95;4.07;;;;;;;;;;5053388;28;20547;-66
2023/07/07 14:19:50;;;;;;;4.38;3.78;;;;;;;;;;5035667;28;20173;-67
2023/07/07 14:22:16;;;;;;;8.38;4.03;;;;;;;;;;5053917;28;20214;-67
2023/07/07 14:24:42;;;;;;;6.63;5.50;;;;;;;;;;5053746;28;20179;-67
2023/07/07 14:27:12;;;;;;;5.50;3.85;;;;;;;;;;5053630;28;20179;-66
2023/07/07 14:29:39;;;;;;;11.10;6.85;;;;;;;;;;5053219;28;20679;-66
2023/07/07 14:32:06;;;;;;;6.30;4.93;;;;;;;;;;5053466;28;20179;-68
2023/07/07 14:34:49;;;;;;;4.15;3.70;;;;;;;;;;5056416;28;20652;-68
2023/07/07 14:37:21;;;;;;;5.22;4.70;;;;;;;;;;5057734;28;20175;-66
2023/07/07 14:39:49;;;;;;;8.30;4.65;;;;;;;;;;5057095;28;20174;-68
2023/07/07 14:42:23;;;;;;;11.35;10.13;;;;;;;;;;5038525;28;20182;-67
2023/07/07 14:44:55;;;;;;;7.45;5.53;;;;;;;;;;5057699;28;20167;-66
2023/07/07 14:47:27;;;;;;;5.32;4.50;;;;;;;;;;5056916;28;20175;-69
2023/07/07 14:49:53;;;;;;;4.10;3.70;;;;;;;;;;5056873;28;20174;-68
2023/07/07 14:52:28;;;;;;;3.80;3.30;;;;;;;;;;5056599;28;20176;-68